createdAt,value
2019-05-20T00:01:57.815Z,77.85
2019-05-20T00:04:27.822Z,77.37
2019-05-20T00:06:57.865Z,77.26
2019-05-20T00:09:27.881Z,77.24
2019-05-20T00:11:58.023Z,77.42
2019-05-20T00:14:29.633Z,77.88
2019-05-20T00:17:00.727Z,77.80
2019-05-20T00:19:30.763Z,77.71
2019-05-20T00:22:00.749Z,77.62
2019-05-20T00:24:30.781Z,77.56
2019-05-20T00:27:00.899Z,78.01
2019-05-20T00:29:30.956Z,77.69
2019-05-20T00:32:00.978Z,77.84
2019-05-20T00:34:35.158Z,77.96
2019-05-20T00:37:03.762Z,78.15
2019-05-20T00:39:33.771Z,78.79
2019-05-20T00:42:03.836Z,79.71
2019-05-20T00:44:33.875Z,78.78
2019-05-20T00:47:03.883Z,78.78
2019-05-20T00:49:33.893Z,78.55
2019-05-20T00:52:04.017Z,78.21
2019-05-20T00:54:34.440Z,78.41
2019-05-20T00:57:04.528Z,78.80
2019-05-20T00:59:34.575Z,79.02
2019-05-20T01:02:04.873Z,78.24
2019-05-20T01:04:34.861Z,79.40
2019-05-20T01:07:05.031Z,78.76
2019-05-20T01:09:35.093Z,78.83
2019-05-20T01:12:05.246Z,79.11
2019-05-20T01:14:35.446Z,79.03
2019-05-20T01:17:05.546Z,78.99
2019-05-20T01:19:35.553Z,79.32
2019-05-20T01:22:05.618Z,78.86
2019-05-20T01:24:36.720Z,79.09
2019-05-20T01:27:06.787Z,78.84
2019-05-20T01:29:36.800Z,79.22
2019-05-20T01:32:06.879Z,79.29
2019-05-20T01:34:36.887Z,79.18
2019-05-20T01:37:06.929Z,79.09
2019-05-20T01:39:36.924Z,79.62
2019-05-20T01:42:06.931Z,79.76
2019-05-20T01:44:36.974Z,79.19
2019-05-20T01:47:06.977Z,78.88
2019-05-20T01:49:37.631Z,78.80
2019-05-20T01:52:07.623Z,79.62
2019-05-20T01:54:37.635Z,78.97
2019-05-20T01:57:07.672Z,79.06
2019-05-20T01:59:37.705Z,79.21
2019-05-20T02:02:07.743Z,80.31
2019-05-20T02:04:37.813Z,79.81
2019-05-20T02:07:07.824Z,79.98
2019-05-20T02:09:37.821Z,80.03
2019-05-20T02:12:07.818Z,79.46
2019-05-20T02:14:39.519Z,79.68
2019-05-20T02:17:09.752Z,80.08
2019-05-20T02:19:39.800Z,80.43
2019-05-20T02:22:09.809Z,79.69
2019-05-20T02:24:39.854Z,80.02
2019-05-20T02:27:10.143Z,80.75
2019-05-20T02:29:40.122Z,81.49
2019-05-20T02:32:11.234Z,81.16
2019-05-20T02:34:41.270Z,79.83
2019-05-20T02:37:11.288Z,80.56
2019-05-20T02:39:41.289Z,80.95
2019-05-20T02:42:11.312Z,80.97
2019-05-20T02:44:41.313Z,80.29
2019-05-20T02:47:11.430Z,80.79
2019-05-20T02:49:41.428Z,81.41
2019-05-20T02:52:11.539Z,80.54
2019-05-20T02:54:41.541Z,80.43
2019-05-20T02:57:12.637Z,80.67
2019-05-20T02:59:42.653Z,80.53
2019-05-20T03:02:12.651Z,81.89
2019-05-20T03:04:43.766Z,81.06
2019-05-20T03:07:13.770Z,81.21
2019-05-20T03:09:43.820Z,82.63
2019-05-20T03:12:13.844Z,81.31
2019-05-20T03:14:43.874Z,80.87
2019-05-20T03:17:13.958Z,80.79
2019-05-20T03:19:43.997Z,81.51
2019-05-20T03:22:14.046Z,81.99
2019-05-20T03:24:44.131Z,81.19
2019-05-20T03:27:14.151Z,81.86
2019-05-20T03:29:44.177Z,80.81
2019-05-20T03:32:14.195Z,81.63
2019-05-20T03:34:51.263Z,80.73
2019-05-20T03:37:16.002Z,81.42
2019-05-20T03:39:46.030Z,80.83
2019-05-20T03:42:16.054Z,80.72
2019-05-20T03:44:46.052Z,80.87
2019-05-20T03:47:16.160Z,81.04
2019-05-20T03:49:46.196Z,81.86
2019-05-20T03:52:16.225Z,83.01
2019-05-20T03:54:46.257Z,82.02
2019-05-20T03:57:16.290Z,82.10
2019-05-20T03:59:46.392Z,81.31
2019-05-20T04:02:16.396Z,82.24
2019-05-20T04:05:00.904Z,81.53
2019-05-20T04:07:18.108Z,81.38
2019-05-20T04:09:48.234Z,81.26
2019-05-20T04:12:18.255Z,81.03
2019-05-20T04:14:48.267Z,81.79
2019-05-20T04:17:18.266Z,81.00
2019-05-20T04:19:48.327Z,80.52
2019-05-20T04:22:18.337Z,81.36
2019-05-20T04:24:48.443Z,81.35
2019-05-20T04:27:18.470Z,81.18
2019-05-20T04:29:48.857Z,82.62
2019-05-20T04:32:18.885Z,81.95
2019-05-20T04:34:48.928Z,81.09
2019-05-20T04:37:18.940Z,81.24
2019-05-20T04:39:49.335Z,81.31
2019-05-20T04:42:19.364Z,81.17
2019-05-20T04:44:49.474Z,82.45
2019-05-20T04:47:19.488Z,82.10
2019-05-20T04:49:49.579Z,82.29
2019-05-20T04:52:19.593Z,82.22
2019-05-20T04:54:49.631Z,82.13
2019-05-20T04:57:19.630Z,82.20
2019-05-20T04:59:49.675Z,83.46
2019-05-20T05:02:19.703Z,83.34
2019-05-20T05:04:49.725Z,82.62
2019-05-20T05:07:19.785Z,83.08
2019-05-20T05:09:49.862Z,82.98
2019-05-20T05:12:19.952Z,82.93
2019-05-20T05:14:50.108Z,83.15
2019-05-20T05:17:20.220Z,83.10
2019-05-20T05:19:50.285Z,83.28
2019-05-20T05:22:20.491Z,84.96
2019-05-20T05:24:50.520Z,83.94
2019-05-20T05:27:20.548Z,83.22
2019-05-20T05:29:50.724Z,83.66
2019-05-20T05:32:22.398Z,83.12
2019-05-20T05:34:52.413Z,83.66
2019-05-20T05:37:23.327Z,83.43
2019-05-20T05:39:53.347Z,84.54
2019-05-20T05:42:23.365Z,83.76
2019-05-20T05:44:53.375Z,83.33
2019-05-20T05:47:23.401Z,83.55
2019-05-20T05:49:53.405Z,84.12
2019-05-20T05:52:23.402Z,84.05
2019-05-20T05:54:53.440Z,84.12
2019-05-20T05:57:23.438Z,83.90
2019-05-20T05:59:53.470Z,83.55
2019-05-20T06:02:23.557Z,84.03
2019-05-20T06:04:53.552Z,83.75
2019-05-20T06:07:23.574Z,63.13
2019-05-20T06:09:53.561Z,66.14
2019-05-20T06:12:23.565Z,67.29
2019-05-20T06:14:53.800Z,75.38
2019-05-20T06:17:23.879Z,79.54
2019-05-20T06:19:53.919Z,80.94
2019-05-20T06:22:23.935Z,82.22
2019-05-20T06:24:54.011Z,82.87
2019-05-20T06:27:24.060Z,83.37
2019-05-20T06:29:54.065Z,83.11
2019-05-20T06:32:24.151Z,83.02
2019-05-20T06:34:54.161Z,83.85
2019-05-20T06:37:26.261Z,83.93
2019-05-20T06:39:57.229Z,84.37
2019-05-20T06:42:27.216Z,83.60
2019-05-20T06:44:57.543Z,82.99
2019-05-20T06:47:27.767Z,83.94
2019-05-20T06:49:57.781Z,72.87
2019-05-20T06:52:35.975Z,71.01
2019-05-20T06:54:59.553Z,79.63
2019-05-20T06:57:29.678Z,82.28
2019-05-20T06:59:59.704Z,83.62
2019-05-20T07:02:29.707Z,83.42
2019-05-20T07:04:59.750Z,82.82
2019-05-20T07:07:29.737Z,84.26
2019-05-20T07:09:59.786Z,83.31
2019-05-20T07:12:40.571Z,84.28
2019-05-20T07:15:01.539Z,83.67
2019-05-20T07:17:33.138Z,83.66
2019-05-20T07:20:03.738Z,83.56
2019-05-20T07:22:34.110Z,83.37
2019-05-20T07:25:05.897Z,83.21
2019-05-20T07:27:37.434Z,84.05
2019-05-20T07:30:08.107Z,83.97
2019-05-20T07:32:38.174Z,85.52
2019-05-20T07:35:08.435Z,84.25
2019-05-20T07:37:38.461Z,84.99
2019-05-20T07:40:08.975Z,85.01
2019-05-20T07:42:39.056Z,84.32
2019-05-20T07:45:10.202Z,83.94
2019-05-20T07:47:40.258Z,84.38
2019-05-20T07:50:11.739Z,84.46
2019-05-20T07:52:42.985Z,84.56
2019-05-20T07:55:13.087Z,83.58
2019-05-20T07:57:46.227Z,84.51
2019-05-20T08:00:16.476Z,84.70
2019-05-20T08:02:46.728Z,85.03
2019-05-20T08:05:16.862Z,84.06
2019-05-20T08:07:52.525Z,83.82
2019-05-20T08:10:18.642Z,83.66
2019-05-20T08:12:48.737Z,84.26
2019-05-20T08:15:18.735Z,84.22
2019-05-20T08:17:48.851Z,84.53
2019-05-20T08:20:19.966Z,85.07
2019-05-20T08:22:49.968Z,84.29
2019-05-20T08:25:20.214Z,84.88
2019-05-20T08:27:50.317Z,84.13
2019-05-20T08:30:23.362Z,83.04
2019-05-20T08:32:53.633Z,85.04
2019-05-20T08:35:23.891Z,84.60
2019-05-20T08:37:54.002Z,84.65
2019-05-20T08:40:24.057Z,85.19
2019-05-20T08:42:54.061Z,85.44
2019-05-20T08:45:25.382Z,84.56
2019-05-20T08:47:55.381Z,84.36
2019-05-20T08:50:25.433Z,84.47
2019-05-20T08:52:55.445Z,84.61
2019-05-20T08:55:25.449Z,84.48
2019-05-20T08:57:55.427Z,84.35
2019-05-20T09:00:25.937Z,83.74
2019-05-20T09:02:56.179Z,84.30
2019-05-20T09:05:28.276Z,83.32
2019-05-20T09:08:03.002Z,84.41
2019-05-20T09:10:29.623Z,85.12
2019-05-20T09:12:59.680Z,85.06
2019-05-20T09:15:29.918Z,84.96
2019-05-20T09:18:00.210Z,84.66
2019-05-20T09:20:30.295Z,85.35
2019-05-20T09:23:02.830Z,84.72
2019-05-20T09:25:34.513Z,83.77
2019-05-20T09:28:05.010Z,85.12
2019-05-20T09:30:35.151Z,84.73
2019-05-20T09:33:05.754Z,84.56
2019-05-20T09:35:36.914Z,84.82
2019-05-20T09:38:19.679Z,84.67
2019-05-20T09:40:41.541Z,83.38
2019-05-20T09:43:11.787Z,84.95
2019-05-20T09:45:41.999Z,84.95
2019-05-20T09:48:12.387Z,84.66
2019-05-20T09:50:42.488Z,83.73
2019-05-20T09:53:12.848Z,83.74
2019-05-20T09:55:43.032Z,84.22
2019-05-20T09:58:13.203Z,83.66
2019-05-20T10:00:43.410Z,83.32
2019-05-20T10:03:14.383Z,83.55
2019-05-20T10:05:44.478Z,83.67
2019-05-20T10:08:14.517Z,82.70
2019-05-20T10:10:45.582Z,82.35
2019-05-20T10:13:15.611Z,82.76
2019-05-20T10:15:45.545Z,83.87
2019-05-20T10:18:15.618Z,83.13
2019-05-20T10:20:45.752Z,83.74
2019-05-20T10:23:16.128Z,83.55
2019-05-20T10:25:46.255Z,83.86
2019-05-20T10:28:16.303Z,83.08
2019-05-20T10:30:46.422Z,82.70
2019-05-20T10:33:16.491Z,83.50
2019-05-20T10:35:46.503Z,82.89
2019-05-20T10:38:16.585Z,80.67
2019-05-20T10:40:46.599Z,80.22
2019-05-20T10:43:17.591Z,82.26
2019-05-20T10:45:47.587Z,85.44
2019-05-20T10:48:17.622Z,79.08
2019-05-20T10:50:47.602Z,79.14
2019-05-20T10:53:17.607Z,77.75
2019-05-20T10:55:47.579Z,76.74
2019-05-20T10:58:17.622Z,75.58
2019-05-20T11:01:01.549Z,77.43
2019-05-20T11:03:19.483Z,75.09
2019-05-20T11:05:49.485Z,74.19
2019-05-20T11:08:19.517Z,74.93
2019-05-20T11:10:49.612Z,74.62
2019-05-20T11:13:19.933Z,76.07
2019-05-20T11:15:49.990Z,75.10
2019-05-20T11:18:20.008Z,74.79
2019-05-20T11:20:50.080Z,75.68
2019-05-20T11:23:20.095Z,74.94
2019-05-20T11:25:50.153Z,75.35
2019-05-20T11:28:21.122Z,72.93
2019-05-20T11:30:51.182Z,70.80
2019-05-20T11:33:21.171Z,70.96
2019-05-20T11:35:51.253Z,70.82
2019-05-20T11:38:21.224Z,70.09
2019-05-20T11:40:51.282Z,70.01
2019-05-20T11:43:21.282Z,68.90
2019-05-20T11:45:51.434Z,69.91
2019-05-20T11:48:21.454Z,69.49
2019-05-20T11:50:51.526Z,70.11
2019-05-20T11:53:21.523Z,70.26
2019-05-20T11:55:52.656Z,70.94
2019-05-20T11:58:22.658Z,71.16
2019-05-20T12:00:52.823Z,70.20
2019-05-20T12:03:22.821Z,70.87
2019-05-20T12:05:52.951Z,70.82
2019-05-20T12:08:23.007Z,70.33
2019-05-20T12:10:53.137Z,70.14
2019-05-20T12:13:23.126Z,69.12
2019-05-20T12:15:53.117Z,69.72
2019-05-20T12:18:23.127Z,70.88
2019-05-20T12:20:53.259Z,70.44
2019-05-20T12:23:23.220Z,69.55
2019-05-20T12:25:53.315Z,71.39
2019-05-20T12:28:23.298Z,70.73
2019-05-20T12:30:53.290Z,70.57
2019-05-20T12:33:23.342Z,71.01
2019-05-20T12:35:53.387Z,70.14
2019-05-20T12:38:23.431Z,70.49
2019-05-20T12:40:53.505Z,71.14
2019-05-20T12:43:23.572Z,71.17
2019-05-20T12:45:53.654Z,70.34
2019-05-20T12:48:23.676Z,70.89
2019-05-20T12:50:53.679Z,71.15
2019-05-20T12:53:24.584Z,71.66
2019-05-20T12:55:54.642Z,71.40
2019-05-20T12:58:25.769Z,70.90
2019-05-20T13:00:55.827Z,70.79
2019-05-20T13:03:25.796Z,71.16
2019-05-20T13:05:55.919Z,71.51
2019-05-20T13:08:25.969Z,70.59
2019-05-20T13:10:55.984Z,70.89
2019-05-20T13:13:25.999Z,70.91
2019-05-20T13:15:55.998Z,71.06
2019-05-20T13:18:25.990Z,70.84
2019-05-20T13:20:55.983Z,67.48
2019-05-20T13:23:26.080Z,70.79
2019-05-20T13:25:56.149Z,70.61
2019-05-20T13:28:26.210Z,71.01
2019-05-20T13:30:56.221Z,70.72
2019-05-20T13:33:26.219Z,71.29
2019-05-20T13:35:56.209Z,70.37
2019-05-20T13:38:26.206Z,70.33
2019-05-20T13:40:56.224Z,69.94
2019-05-20T13:43:26.305Z,69.71
2019-05-20T13:45:56.316Z,69.68
2019-05-20T13:48:26.351Z,69.42
2019-05-20T13:50:56.369Z,70.34
2019-05-20T13:53:26.360Z,69.77
2019-05-20T13:55:56.377Z,70.10
2019-05-20T13:58:26.409Z,69.66
2019-05-20T14:00:56.451Z,70.04
2019-05-20T14:03:26.467Z,69.27
2019-05-20T14:05:56.459Z,69.45
2019-05-20T14:08:26.452Z,68.85
2019-05-20T14:11:04.524Z,69.23
2019-05-20T14:13:28.242Z,69.85
2019-05-20T14:15:58.292Z,69.65
2019-05-20T14:18:28.386Z,70.25
2019-05-20T14:20:58.409Z,70.14
2019-05-20T14:23:28.393Z,71.07
2019-05-20T14:25:58.538Z,70.33
2019-05-20T14:28:28.565Z,70.19
2019-05-20T14:30:58.569Z,69.60
2019-05-20T14:33:28.586Z,69.94
2019-05-20T14:35:58.639Z,69.86
2019-05-20T14:38:28.643Z,70.48
2019-05-20T14:40:58.637Z,70.14
2019-05-20T14:43:28.733Z,70.52
2019-05-20T14:45:58.815Z,70.06
2019-05-20T14:48:28.895Z,69.90
2019-05-20T14:50:58.909Z,70.20
2019-05-20T14:53:28.926Z,70.21
2019-05-20T14:55:58.911Z,70.44
2019-05-20T14:58:28.930Z,70.93
2019-05-20T15:00:58.921Z,71.01
2019-05-20T15:03:29.074Z,71.25
2019-05-20T15:05:59.043Z,70.34
2019-05-20T15:08:33.675Z,69.86
2019-05-20T15:11:00.787Z,69.12
2019-05-20T15:13:31.874Z,69.28
2019-05-20T15:16:01.910Z,69.54
2019-05-20T15:18:31.902Z,70.10
2019-05-20T15:21:02.044Z,69.39
2019-05-20T15:23:32.037Z,69.27
2019-05-20T15:26:02.167Z,69.36
2019-05-20T15:28:32.311Z,69.20
2019-05-20T15:31:02.355Z,69.51
2019-05-20T15:33:32.436Z,69.24
2019-05-20T15:36:02.448Z,69.74
2019-05-20T15:38:32.514Z,70.10
2019-05-20T15:41:02.633Z,69.31
2019-05-20T15:43:32.638Z,71.01
2019-05-20T15:46:02.637Z,71.03
2019-05-20T15:48:34.254Z,69.98
2019-05-20T15:51:05.771Z,70.44
2019-05-20T15:53:35.799Z,69.89
2019-05-20T15:56:05.828Z,70.45
2019-05-20T15:58:35.809Z,69.64
2019-05-20T16:01:05.824Z,69.82
2019-05-20T16:03:35.880Z,69.93
2019-05-20T16:06:05.944Z,69.32
2019-05-20T16:08:35.956Z,68.71
2019-05-20T16:11:07.059Z,68.45
2019-05-20T16:13:37.367Z,67.39
2019-05-20T16:16:07.409Z,67.23
2019-05-20T16:18:37.479Z,66.71
2019-05-20T16:21:08.591Z,65.73
2019-05-20T16:23:38.745Z,66.36
2019-05-20T16:26:08.932Z,66.23
2019-05-20T16:28:39.045Z,65.96
2019-05-20T16:31:09.194Z,65.20
2019-05-20T16:33:39.274Z,67.02
2019-05-20T16:36:09.285Z,66.10
2019-05-20T16:38:39.384Z,66.17
2019-05-20T16:41:09.430Z,65.53
2019-05-20T16:43:39.491Z,65.01
2019-05-20T16:46:09.580Z,65.23
2019-05-20T16:48:39.589Z,65.38
2019-05-20T16:51:09.649Z,65.02
2019-05-20T16:53:39.685Z,65.01
2019-05-20T16:56:09.695Z,65.87
2019-05-20T16:58:39.801Z,65.88
2019-05-20T17:01:09.876Z,66.68
2019-05-20T17:03:40.007Z,66.98
2019-05-20T17:06:10.222Z,66.75
2019-05-20T17:08:40.298Z,66.66
2019-05-20T17:11:10.356Z,67.44
2019-05-20T17:13:40.408Z,67.42
2019-05-20T17:16:10.603Z,67.43
2019-05-20T17:18:40.595Z,67.04
2019-05-20T17:21:10.797Z,67.31
2019-05-20T17:23:40.808Z,60.13
2019-05-20T17:26:10.895Z,56.62
2019-05-20T17:28:40.899Z,66.25
2019-05-20T17:31:11.039Z,67.75
2019-05-20T17:33:41.163Z,68.16
2019-05-20T17:36:11.187Z,67.59
2019-05-20T17:38:41.239Z,67.59
2019-05-20T17:41:11.318Z,69.26
2019-05-20T17:43:41.318Z,69.45
2019-05-20T17:46:11.446Z,70.05
2019-05-20T17:48:41.602Z,69.13
2019-05-20T17:51:11.761Z,68.90
2019-05-20T17:53:41.869Z,68.75
2019-05-20T17:56:11.931Z,68.25
2019-05-20T17:58:42.097Z,68.08
2019-05-20T18:01:15.851Z,68.25
2019-05-20T18:03:43.807Z,67.40
2019-05-20T18:06:13.844Z,67.66
2019-05-20T18:08:45.633Z,68.32
2019-05-20T18:11:19.115Z,68.45
2019-05-20T18:13:47.432Z,68.80
2019-05-20T18:16:17.611Z,68.98
2019-05-20T18:18:47.615Z,69.05
2019-05-20T18:21:17.727Z,69.20
2019-05-20T18:23:47.736Z,69.61
2019-05-20T18:26:17.989Z,69.32
2019-05-20T18:28:47.989Z,69.85
2019-05-20T18:31:31.707Z,70.18
2019-05-20T18:33:49.851Z,70.22
2019-05-20T18:36:19.859Z,70.88
2019-05-20T18:38:50.084Z,71.22
2019-05-20T18:41:20.261Z,71.22
2019-05-20T18:43:50.303Z,71.64
2019-05-20T18:46:20.416Z,72.26
2019-05-20T18:48:50.410Z,71.70
2019-05-20T18:51:20.440Z,71.36
2019-05-20T18:53:50.456Z,72.58
2019-05-20T18:56:20.467Z,73.04
2019-05-20T18:58:50.514Z,72.80
2019-05-20T19:01:21.574Z,73.47
2019-05-20T19:03:51.627Z,73.56
2019-05-20T19:06:21.608Z,73.04
2019-05-20T19:08:51.613Z,72.89
2019-05-20T19:11:21.818Z,73.59
2019-05-20T19:13:51.833Z,74.25
2019-05-20T19:16:21.841Z,74.00
2019-05-20T19:18:51.882Z,73.71
2019-05-20T19:21:21.886Z,73.27
2019-05-20T19:23:51.940Z,73.87
2019-05-20T19:26:24.994Z,72.90
2019-05-20T19:28:53.648Z,73.16
2019-05-20T19:31:23.656Z,74.25
2019-05-20T19:33:53.738Z,74.00
2019-05-20T19:36:23.812Z,74.44
2019-05-20T19:38:53.984Z,74.41
2019-05-20T19:41:24.002Z,74.72
2019-05-20T19:43:54.165Z,78.05
2019-05-20T19:46:24.316Z,79.41
2019-05-20T19:48:55.515Z,80.84
2019-05-20T19:51:25.537Z,77.84
2019-05-20T19:53:57.089Z,76.58
2019-05-20T19:56:27.095Z,77.09
2019-05-20T19:58:57.146Z,76.94
2019-05-20T20:01:27.237Z,76.84
2019-05-20T20:03:57.242Z,76.85
2019-05-20T20:06:27.301Z,77.00
2019-05-20T20:08:57.318Z,76.17
2019-05-20T20:11:27.328Z,76.58
2019-05-20T20:13:57.320Z,76.82
2019-05-20T20:16:27.428Z,79.59
2019-05-20T20:18:57.394Z,77.87
2019-05-20T20:21:27.486Z,77.61
2019-05-20T20:23:57.523Z,77.75
2019-05-20T20:26:27.528Z,77.72
2019-05-20T20:28:57.578Z,78.80
2019-05-20T20:31:28.630Z,77.73
2019-05-20T20:33:58.631Z,77.66
2019-05-20T20:36:28.664Z,77.71
2019-05-20T20:38:58.653Z,78.69
2019-05-20T20:41:28.704Z,78.48
2019-05-20T20:43:58.705Z,78.51
2019-05-20T20:46:28.709Z,78.32
2019-05-20T20:48:58.744Z,78.53
2019-05-20T20:51:28.731Z,77.98
2019-05-20T20:53:59.751Z,78.17
2019-05-20T20:56:29.752Z,78.22
2019-05-20T20:58:59.845Z,78.58
2019-05-20T21:01:29.930Z,77.89
2019-05-20T21:04:00.100Z,78.15
2019-05-20T21:06:30.130Z,79.82
2019-05-20T21:09:00.137Z,79.07
2019-05-20T21:11:30.176Z,80.63
2019-05-20T21:14:00.183Z,78.99
2019-05-20T21:16:30.218Z,78.29
2019-05-20T21:19:00.187Z,78.09
2019-05-20T21:21:30.178Z,78.90
2019-05-20T21:24:00.194Z,79.51
2019-05-20T21:26:30.188Z,79.96
2019-05-20T21:29:00.200Z,79.47
2019-05-20T21:31:30.217Z,79.31
2019-05-20T21:34:00.243Z,79.25
2019-05-20T21:36:30.342Z,78.92
2019-05-20T21:39:00.372Z,79.06
2019-05-20T21:41:30.374Z,78.90
2019-05-20T21:44:00.837Z,79.54
2019-05-20T21:46:30.870Z,78.77
2019-05-20T21:49:00.893Z,78.79
2019-05-20T21:51:30.908Z,78.58
2019-05-20T21:54:00.910Z,78.07
2019-05-20T21:56:30.925Z,77.98
2019-05-20T21:59:00.989Z,78.51
2019-05-20T22:01:32.029Z,79.02
2019-05-20T22:04:02.058Z,79.05
2019-05-20T22:06:32.044Z,79.22
2019-05-20T22:09:02.057Z,78.45
2019-05-20T22:11:32.652Z,78.87
2019-05-20T22:14:03.265Z,78.90
2019-05-20T22:16:33.700Z,79.75
2019-05-20T22:19:03.705Z,79.18
2019-05-20T22:21:51.627Z,79.90
2019-05-20T22:24:21.613Z,82.09
2019-05-20T22:26:52.806Z,80.07
2019-05-20T22:29:22.797Z,79.95
2019-05-20T22:31:52.848Z,80.29
2019-05-20T22:34:23.918Z,79.64
2019-05-20T22:36:53.949Z,79.65
2019-05-20T22:39:23.961Z,79.51
2019-05-20T22:41:53.994Z,80.66
2019-05-20T22:44:24.012Z,80.72
2019-05-20T22:46:54.127Z,81.90
2019-05-20T22:49:24.112Z,83.05
2019-05-20T22:51:54.147Z,81.01
2019-05-20T22:54:24.164Z,83.16
2019-05-20T22:56:54.159Z,82.44
2019-05-20T22:59:24.154Z,81.30
2019-05-20T23:01:54.226Z,82.37
2019-05-20T23:04:24.242Z,82.11
2019-05-20T23:06:54.357Z,81.28
2019-05-20T23:09:24.351Z,81.23
2019-05-20T23:11:54.480Z,81.82
2019-05-20T23:14:25.336Z,82.34
2019-05-20T23:16:56.215Z,82.48
2019-05-20T23:19:26.220Z,81.28
2019-05-20T23:36:33.686Z,82.29
2019-05-20T23:39:06.541Z,81.74
2019-05-20T23:41:36.666Z,81.40
2019-05-20T23:44:06.684Z,83.17
2019-05-20T23:46:36.695Z,81.77
2019-05-20T23:49:06.827Z,80.92
2019-05-20T23:51:36.914Z,80.35
2019-05-20T23:54:06.959Z,80.52
2019-05-20T23:56:37.024Z,81.91
2019-05-20T23:59:07.022Z,82.60
